Orages Valable du: 24-05-2019 09:57 Au: 25-05-2019 05:00 Avertissement pour: Orages Niveau: Jaune info button

Alerte pour Orages more information blitzortung!


Retrouvez également nos données météorologiques sur:

UK Metoffice

Weather Underground

AWEKAS

Citizen Weather Observer Program (CWOP)



Rapports METAR à proximité

   
LFOJ - Montargis
Mise à jour: 24-05-2019 16:30
Ciel dégagé  
Ciel dégagé  
   Vent: NNO 13 km/h
Vent: NNO 13 km/h
Température: 21°C
Point de rosée: 11°C
Humidité: 53%
Pression atmosphérique: 1016 hPa
Visibilité: More than 10 km
Nébulosité: Ciel dégagé
LFOJ 241430Z AUTO 33007KT 280V010 CAVOK 21/11 Q1016 NOSIG
LFOJ - Orléans
Mise à jour: 24-05-2019 16:30
Ciel dégagé  
Ciel dégagé  
   Vent: NNO 13 km/h
Vent: NNO 13 km/h
Température: 21°C
Point de rosée: 11°C
Humidité: 53%
Pression atmosphérique: 1016 hPa
Visibilité: More than 10 km
Nébulosité: Ciel dégagé
LFOJ 241430Z AUTO 33007KT 280V010 CAVOK 21/11 Q1016 NOSIG
LFQB - Sens
Mise à jour: 24-05-2019 16:30
Ciel dégagé  
Ciel dégagé  
   Vent: ONO 13 km/h
Vent: ONO 13 km/h
Température: 23°C
Point de rosée: 12°C
Humidité: 50%
Pression atmosphérique: 1015 hPa
Visibilité: More than 10 km
Nébulosité: Ciel dégagé
LFQB 241430Z AUTO 30007KT 260V330 CAVOK 23/12 Q1015
LFQB - Auxerre
Mise à jour: 24-05-2019 16:30
Ciel dégagé  
Ciel dégagé  
   Vent: ONO 13 km/h
Vent: ONO 13 km/h
Température: 23°C
Point de rosée: 12°C
Humidité: 50%
Pression atmosphérique: 1015 hPa
Visibilité: More than 10 km
Nébulosité: Ciel dégagé
LFQB 241430Z AUTO 30007KT 260V330 CAVOK 23/12 Q1015
LFPO - Paris
Mise à jour: 24-05-2019 16:30
Ciel dégagé  
Ciel dégagé  
   Vent: NNO 13 km/h
Vent: NNO 13 km/h
Température: 23°C
Point de rosée: 10°C
Humidité: 44%
Pression atmosphérique: 1016 hPa
Visibilité: More than 10 km
Nébulosité: Ciel dégagé
LFPO 241430Z 33007KT 260V010 CAVOK 23/10 Q1016 NOSIG
LFLX - Bourges
Mise à jour: 24-05-2019 16:30
Nuageux  
Nuageux  
   Vent: NNO 18.5 km/h
Vent: NNO 18.5 km/h
Température: 21°C
Point de rosée: 12°C
Humidité: 57%
Pression atmosphérique: 1016 hPa
Nuages: Nuageux
Visibilité: More than 10 km
Nébulosité: Partiellement nuageux 4600 ft,
Partiellement nuageux 6200 ft,
Nuageux 7400 ft
LFLX 241430Z AUTO 34010KT 9999 SCT046 SCT062 BKN074 21/12 Q1016 TEMPO 4000 -TSRA SCT050CB

Original script by  Saratoga-weather.org Adapted for the template by  Weerstation Leuven